createdAt,value
2023-03-23T15:58:44.881Z,48.20
2023-03-23T16:01:17.293Z,48.10
2023-03-23T16:03:58.677Z,48.70
2023-03-23T16:06:27.834Z,49.10
2023-03-23T16:08:56.322Z,50.80
2023-03-23T16:11:26.702Z,51.60
2023-03-23T16:13:53.641Z,52.20
2023-03-23T16:16:23.491Z,52.60
2023-03-23T16:18:50.808Z,52.50
2023-03-23T16:21:17.687Z,53.50
2023-03-23T16:23:46.289Z,54.70
2023-03-23T16:26:15.038Z,54.90
2023-03-23T16:28:43.078Z,55.60
2023-03-23T16:31:10.750Z,55.80
2023-03-23T16:33:38.029Z,55.60
2023-03-23T16:36:05.357Z,55.80
2023-03-23T16:38:32.337Z,56.30
2023-03-23T16:40:59.312Z,56.90
2023-03-23T16:43:26.199Z,57.50
2023-03-23T16:45:56.500Z,58.10
2023-03-23T16:48:23.952Z,58.90
2023-03-23T16:50:51.700Z,58.90
2023-03-23T16:53:18.952Z,59.50
2023-03-23T16:55:48.485Z,59.60
2023-03-23T16:58:18.072Z,60.30
2023-03-23T17:00:50.188Z,60.70
2023-03-23T17:03:18.721Z,61.00
2023-03-23T17:05:47.530Z,61.50
2023-03-23T17:08:14.425Z,62.10
2023-03-23T17:10:42.209Z,62.40
2023-03-23T17:13:09.164Z,62.10
2023-03-23T17:15:41.841Z,63.20
2023-03-23T17:18:10.307Z,63.30
2023-03-23T17:20:37.186Z,62.40
2023-03-23T17:23:05.174Z,62.40
2023-03-23T17:25:32.431Z,62.40
2023-03-23T17:28:05.767Z,62.70
2023-03-23T17:30:33.492Z,62.90
2023-03-23T17:33:00.597Z,63.00
2023-03-23T17:35:27.722Z,63.10
2023-03-23T17:37:54.530Z,62.90
2023-03-23T17:40:21.318Z,62.90
2023-03-23T17:42:48.201Z,62.90
2023-03-23T17:45:15.387Z,62.90
2023-03-23T17:47:42.330Z,63.20
2023-03-23T17:50:11.503Z,63.10
2023-03-23T17:52:40.120Z,63.30
2023-03-23T17:55:07.661Z,63.60
2023-03-23T17:57:35.164Z,63.80
2023-03-23T18:00:03.430Z,63.90
2023-03-23T18:02:34.026Z,64.10
2023-03-23T18:05:01.007Z,64.20
2023-03-23T18:07:27.972Z,64.30
2023-03-23T18:09:59.714Z,64.60
2023-03-23T18:12:26.989Z,64.90
2023-03-23T18:14:58.219Z,65.30
2023-03-23T18:17:25.787Z,65.40
2023-03-23T18:19:52.838Z,65.70
2023-03-23T18:22:19.765Z,66.00
2023-03-23T18:24:47.372Z,66.00
2023-03-23T18:27:14.373Z,66.40
2023-03-23T18:29:41.327Z,66.70
2023-03-23T18:32:08.431Z,66.80
2023-03-23T18:34:36.427Z,67.10
2023-03-23T18:37:03.889Z,67.80
2023-03-23T18:39:33.839Z,67.50
2023-03-23T18:42:00.941Z,67.90
2023-03-23T18:44:27.860Z,68.00
2023-03-23T18:46:54.702Z,68.20
2023-03-23T18:49:21.897Z,68.40
2023-03-23T18:51:48.900Z,68.70
2023-03-23T18:54:17.376Z,69.00
2023-03-23T18:56:44.231Z,69.50
2023-03-23T18:59:11.479Z,69.80
2023-03-23T19:01:38.558Z,70.10
2023-03-23T19:04:06.637Z,70.50
2023-03-23T19:06:35.021Z,70.80
2023-03-23T19:09:02.354Z,71.20
2023-03-23T19:11:29.324Z,71.70
2023-03-23T19:14:02.175Z,71.90
2023-03-23T19:16:32.775Z,72.30
2023-03-23T19:19:01.905Z,72.70
2023-03-23T19:21:31.805Z,72.80
2023-03-23T19:24:00.715Z,73.10
2023-03-23T19:26:39.748Z,73.40
2023-03-23T19:31:38.486Z,73.90
2023-03-23T19:34:05.986Z,74.10
2023-03-23T19:36:33.405Z,74.50
2023-03-23T19:39:03.026Z,74.70
2023-03-23T19:41:30.762Z,75.00
2023-03-23T19:43:58.115Z,75.40
2023-03-23T19:46:27.760Z,75.50
2023-03-23T19:48:58.655Z,75.60
2023-03-23T19:51:26.703Z,75.80
2023-03-23T19:53:56.203Z,76.00
2023-03-23T19:56:24.084Z,76.10
2023-03-23T19:58:51.432Z,76.30
2023-03-23T20:01:18.440Z,76.30
2023-03-23T20:03:45.964Z,76.50
2023-03-23T20:06:15.354Z,76.60
2023-03-23T20:08:45.645Z,76.70
2023-03-23T20:11:17.095Z,77.00
2023-03-23T20:13:45.405Z,77.10
2023-03-23T20:16:12.278Z,77.20
2023-03-23T20:18:40.542Z,77.50
2023-03-23T20:21:10.779Z,77.60
2023-03-23T20:23:38.911Z,77.90
2023-03-23T20:26:17.772Z,78.10
2023-03-23T20:28:45.840Z,78.20
2023-03-23T20:31:24.809Z,78.20
2023-03-23T20:34:01.913Z,78.40
2023-03-23T20:36:40.096Z,78.70
2023-03-23T20:39:15.083Z,78.80
2023-03-23T20:41:43.303Z,78.80
2023-03-23T20:44:14.108Z,79.10
2023-03-23T20:46:45.820Z,79.30
2023-03-23T20:49:13.902Z,79.40
2023-03-23T20:51:41.130Z,79.40
2023-03-23T20:54:08.246Z,79.60
2023-03-23T20:56:35.573Z,79.70
2023-03-23T20:59:03.012Z,79.90
2023-03-23T21:01:29.993Z,80.00
2023-03-23T21:03:57.798Z,80.10
2023-03-23T21:06:28.362Z,80.30
2023-03-23T21:08:57.059Z,80.30
2023-03-23T21:11:25.978Z,80.50
2023-03-23T21:13:53.149Z,80.70
2023-03-23T21:16:20.244Z,80.70
2023-03-23T21:18:47.664Z,80.70
2023-03-23T21:21:18.166Z,80.90
2023-03-23T21:23:52.372Z,80.90
2023-03-23T21:26:21.480Z,81.00
2023-03-23T21:28:50.582Z,81.10
2023-03-23T21:31:18.137Z,81.20
2023-03-23T21:33:45.460Z,81.30
2023-03-23T21:36:12.518Z,81.40
2023-03-23T21:38:39.803Z,81.40
2023-03-23T21:41:09.708Z,81.50
2023-03-23T21:43:36.688Z,81.70
2023-03-23T21:46:06.024Z,81.80
2023-03-23T21:48:33.177Z,81.90
2023-03-23T21:51:12.497Z,82.00
2023-03-23T21:53:39.510Z,83.00
2023-03-23T21:56:07.862Z,82.30
2023-03-23T21:58:35.071Z,82.40
2023-03-23T22:01:02.493Z,82.50
2023-03-23T22:03:33.113Z,82.70
2023-03-23T22:06:09.229Z,82.80
2023-03-23T22:08:38.262Z,82.90
2023-03-23T22:11:08.937Z,83.10
2023-03-23T22:13:37.813Z,83.20
2023-03-23T22:16:07.576Z,83.20
2023-03-23T22:18:35.268Z,83.40
2023-03-23T22:21:02.223Z,83.50
2023-03-23T22:23:29.119Z,83.40
2023-03-23T22:25:56.882Z,83.40
2023-03-23T22:28:26.537Z,83.60
2023-03-23T22:31:03.386Z,83.60
2023-03-23T22:33:31.377Z,83.60
2023-03-23T22:35:58.862Z,83.70
2023-03-23T22:38:26.056Z,83.70
2023-03-23T22:41:01.261Z,84.00
2023-03-23T22:43:28.698Z,83.90
2023-03-23T22:45:55.695Z,84.00
2023-03-23T22:48:24.448Z,84.00
2023-03-23T22:50:51.582Z,84.00
2023-03-23T22:53:19.252Z,84.20
2023-03-23T22:55:49.164Z,84.30
2023-03-23T22:58:17.397Z,84.50
2023-03-23T23:00:47.271Z,84.60
2023-03-23T23:03:17.383Z,84.70
2023-03-23T23:05:46.645Z,84.70
2023-03-23T23:08:16.624Z,84.80
2023-03-23T23:10:47.425Z,85.00
2023-03-23T23:13:18.653Z,85.00
2023-03-23T23:15:51.812Z,85.20
2023-03-23T23:18:20.311Z,85.30
2023-03-23T23:20:52.150Z,85.40
2023-03-23T23:23:19.263Z,85.60
2023-03-23T23:25:46.398Z,85.70
2023-03-23T23:28:13.692Z,85.70
2023-03-23T23:30:40.970Z,85.80
2023-03-23T23:33:09.294Z,85.90
2023-03-23T23:35:38.003Z,86.00
2023-03-23T23:38:06.078Z,86.10
2023-03-23T23:40:35.225Z,86.20
2023-03-23T23:43:03.674Z,86.30
2023-03-23T23:45:31.108Z,86.30
2023-03-23T23:47:58.455Z,86.40
2023-03-23T23:50:25.707Z,86.50
2023-03-23T23:52:52.647Z,86.50
2023-03-23T23:55:20.568Z,86.50
2023-03-23T23:57:48.781Z,86.70
